createdAt,value
2023-05-19T00:01:44.065Z,4.50
2023-05-19T00:04:12.441Z,4.30
2023-05-19T00:06:39.258Z,4.50
2023-05-19T00:09:07.271Z,4.70
2023-05-19T00:11:36.374Z,4.43
2023-05-19T00:14:04.267Z,4.57
2023-05-19T00:16:31.385Z,4.20
2023-05-19T00:19:00.169Z,4.40
2023-05-19T00:21:27.400Z,3.83
2023-05-19T00:23:54.100Z,4.07
2023-05-19T00:26:22.772Z,4.03
2023-05-19T00:28:59.226Z,3.87
2023-05-19T00:31:26.085Z,4.13
2023-05-19T00:33:52.710Z,3.83
2023-05-19T00:36:19.305Z,4.13
2023-05-19T00:38:45.919Z,3.80
2023-05-19T00:41:12.549Z,3.83
2023-05-19T00:43:39.184Z,3.63
2023-05-19T00:46:07.273Z,3.80
2023-05-19T00:48:34.753Z,3.60
2023-05-19T00:51:04.714Z,3.70
2023-05-19T00:53:32.472Z,4.17
2023-05-19T00:56:00.135Z,4.23
2023-05-19T00:58:30.569Z,4.00
2023-05-19T01:01:03.240Z,3.90
2023-05-19T01:03:35.644Z,4.00
2023-05-19T01:06:05.990Z,4.00
2023-05-19T01:08:33.379Z,4.17
2023-05-19T01:11:00.178Z,4.00
2023-05-19T01:13:30.353Z,4.27
2023-05-19T01:16:09.237Z,3.87
2023-05-19T01:18:44.485Z,4.23
2023-05-19T01:21:36.563Z,4.30
2023-05-19T01:24:22.952Z,4.20
2023-05-19T01:26:59.571Z,4.20
2023-05-19T01:29:41.080Z,4.50
2023-05-19T01:32:09.358Z,3.90
2023-05-19T01:34:38.844Z,4.00
2023-05-19T01:37:05.654Z,4.07
2023-05-19T01:39:33.319Z,3.80
2023-05-19T01:42:00.778Z,4.07
2023-05-19T01:44:28.940Z,4.37
2023-05-19T01:46:55.590Z,4.77
2023-05-19T01:49:23.543Z,9.13
2023-05-19T01:51:50.174Z,10.10
2023-05-19T01:54:16.783Z,10.13
2023-05-19T01:56:55.032Z,9.63
2023-05-19T01:59:41.841Z,9.47
2023-05-19T02:02:28.860Z,8.53
2023-05-19T02:04:57.886Z,8.77
2023-05-19T02:07:37.532Z,7.63
2023-05-19T02:10:04.143Z,7.50
2023-05-19T02:12:34.309Z,5.87
2023-05-19T02:15:11.119Z,5.50
2023-05-19T02:17:42.241Z,4.77
2023-05-19T02:20:10.134Z,4.60
2023-05-19T02:22:36.737Z,4.00
2023-05-19T02:25:03.562Z,3.30
2023-05-19T02:27:32.997Z,3.23
2023-05-19T02:29:59.569Z,2.97
2023-05-19T02:32:26.218Z,2.93
2023-05-19T02:34:53.636Z,3.13
2023-05-19T02:37:23.805Z,3.43
2023-05-19T02:39:50.811Z,3.33
2023-05-19T02:42:18.365Z,3.27
2023-05-19T02:44:44.952Z,3.70
2023-05-19T02:47:12.325Z,3.60
2023-05-19T02:49:38.911Z,3.40
2023-05-19T02:52:06.056Z,3.37
2023-05-19T02:54:33.276Z,3.80
2023-05-19T02:57:01.167Z,3.60
2023-05-19T02:59:27.903Z,3.30
2023-05-19T03:01:55.658Z,3.77
2023-05-19T03:04:22.409Z,3.33
2023-05-19T03:06:49.157Z,3.07
2023-05-19T03:09:15.870Z,3.70
2023-05-19T03:11:42.748Z,3.73
2023-05-19T03:14:15.196Z,3.80
2023-05-19T03:16:42.301Z,3.27
2023-05-19T03:19:09.674Z,3.53
2023-05-19T03:21:36.732Z,3.77
2023-05-19T03:24:03.473Z,3.10
2023-05-19T03:26:30.161Z,3.87
2023-05-19T03:28:56.966Z,3.33
2023-05-19T03:31:23.777Z,3.43
2023-05-19T03:33:50.488Z,3.60
2023-05-19T03:36:17.669Z,3.73
2023-05-19T03:38:44.302Z,3.53
2023-05-19T03:41:10.949Z,3.60
2023-05-19T03:43:37.516Z,3.90
2023-05-19T03:46:06.598Z,3.87
2023-05-19T03:48:51.902Z,3.97
2023-05-19T03:51:32.302Z,4.20
2023-05-19T03:54:08.535Z,3.63
2023-05-19T03:56:39.150Z,3.80
2023-05-19T03:59:07.909Z,4.00
2023-05-19T04:01:36.580Z,4.10
2023-05-19T04:04:03.247Z,4.43
2023-05-19T04:06:29.906Z,4.17
2023-05-19T04:08:56.562Z,4.13
2023-05-19T04:11:23.153Z,3.57
2023-05-19T04:13:49.752Z,3.80
2023-05-19T04:16:16.597Z,3.53
2023-05-19T04:18:45.540Z,4.10
2023-05-19T04:21:12.132Z,4.13
2023-05-19T04:23:38.725Z,4.70
2023-05-19T04:26:06.811Z,4.40
2023-05-19T04:28:36.273Z,4.90
2023-05-19T04:31:03.585Z,4.60
2023-05-19T04:33:30.279Z,4.57
2023-05-19T04:35:58.418Z,4.70
2023-05-19T04:38:25.175Z,4.90
2023-05-19T04:40:52.063Z,4.60
2023-05-19T04:43:19.388Z,4.43
2023-05-19T04:45:46.622Z,4.90
2023-05-19T04:48:14.070Z,4.67
2023-05-19T04:50:42.274Z,4.33
2023-05-19T04:53:09.746Z,4.80
2023-05-19T04:55:38.637Z,4.40
2023-05-19T04:58:06.586Z,5.10
2023-05-19T05:00:35.754Z,4.90
2023-05-19T05:03:05.923Z,5.23
2023-05-19T05:05:33.485Z,4.90
2023-05-19T05:08:00.514Z,4.70
2023-05-19T05:10:30.801Z,4.87
2023-05-19T05:12:57.973Z,4.90
2023-05-19T05:15:24.790Z,4.97
2023-05-19T05:17:51.783Z,4.80
2023-05-19T05:20:19.745Z,4.67
2023-05-19T05:22:46.608Z,5.60
2023-05-19T05:25:14.170Z,5.13
2023-05-19T05:27:42.064Z,5.10
2023-05-19T05:30:09.120Z,4.97
2023-05-19T05:32:36.843Z,4.97
2023-05-19T05:35:09.622Z,4.93
2023-05-19T05:37:36.301Z,5.40
2023-05-19T05:40:04.645Z,5.50
2023-05-19T05:42:31.326Z,5.70
2023-05-19T05:44:58.038Z,5.83
2023-05-19T05:47:24.832Z,5.60
2023-05-19T05:49:53.585Z,6.07
2023-05-19T05:52:21.509Z,6.10
2023-05-19T05:54:48.672Z,5.70
2023-05-19T05:57:17.998Z,5.77
2023-05-19T05:59:47.086Z,6.57
2023-05-19T06:02:14.391Z,6.33
2023-05-19T06:04:41.048Z,6.20
2023-05-19T06:07:08.350Z,6.20
2023-05-19T06:09:37.972Z,6.20
2023-05-19T06:12:06.946Z,6.00
2023-05-19T06:14:39.052Z,5.73
2023-05-19T06:17:20.243Z,6.50
2023-05-19T06:19:46.901Z,5.97
2023-05-19T06:22:13.608Z,6.53
2023-05-19T06:24:40.336Z,5.70
2023-05-19T06:27:09.082Z,6.10
2023-05-19T06:29:35.879Z,5.73
2023-05-19T06:32:05.624Z,5.87
2023-05-19T06:34:32.384Z,6.40
2023-05-19T06:36:59.717Z,5.87
2023-05-19T06:39:26.495Z,5.77
2023-05-19T06:41:53.260Z,5.43
2023-05-19T06:44:42.909Z,5.83
2023-05-19T06:47:11.738Z,5.43
2023-05-19T06:49:38.444Z,5.63
2023-05-19T06:52:05.255Z,5.50
2023-05-19T06:54:31.942Z,5.30
2023-05-19T06:56:58.627Z,5.60
2023-05-19T06:59:25.458Z,5.13
2023-05-19T07:01:52.157Z,4.70
2023-05-19T07:04:18.874Z,4.53
2023-05-19T07:06:45.456Z,4.30
2023-05-19T07:09:12.163Z,4.67
2023-05-19T07:11:39.843Z,4.43
2023-05-19T07:14:07.447Z,4.47
2023-05-19T07:16:34.114Z,4.10
2023-05-19T07:19:00.809Z,4.17
2023-05-19T07:21:27.409Z,4.03
2023-05-19T07:23:54.034Z,3.70
2023-05-19T07:26:20.903Z,3.60
2023-05-19T07:28:47.578Z,3.60
2023-05-19T07:31:14.164Z,3.80
2023-05-19T07:33:41.265Z,3.27
2023-05-19T07:36:07.944Z,3.43
2023-05-19T07:38:34.839Z,3.40
2023-05-19T07:41:01.982Z,3.20
2023-05-19T07:43:28.571Z,3.50
2023-05-19T07:45:56.462Z,3.40
2023-05-19T07:48:24.683Z,3.20
2023-05-19T07:50:51.580Z,3.30
2023-05-19T07:53:18.723Z,3.10
2023-05-19T07:55:45.297Z,3.13
2023-05-19T07:58:11.946Z,2.77
2023-05-19T08:00:38.538Z,3.03
2023-05-19T08:03:05.248Z,3.33
2023-05-19T08:05:31.932Z,3.00
2023-05-19T08:07:58.567Z,2.90
2023-05-19T08:10:25.186Z,3.00
2023-05-19T08:12:51.764Z,2.37
2023-05-19T08:15:19.069Z,2.23
2023-05-19T08:17:45.760Z,2.60
2023-05-19T08:20:12.583Z,2.67
2023-05-19T08:22:39.131Z,2.60
2023-05-19T08:25:06.443Z,2.67
2023-05-19T08:27:33.425Z,2.47
2023-05-19T08:30:00.191Z,2.40
2023-05-19T08:32:27.233Z,2.57
2023-05-19T08:34:53.848Z,2.63
2023-05-19T08:37:20.406Z,2.30
2023-05-19T08:39:46.970Z,2.50
2023-05-19T08:42:13.613Z,2.60
2023-05-19T08:44:41.352Z,2.50
2023-05-19T08:47:13.893Z,2.40
2023-05-19T08:49:45.647Z,2.60
2023-05-19T08:52:16.260Z,2.50
2023-05-19T08:55:13.071Z,2.20
2023-05-19T08:57:40.467Z,2.30
2023-05-19T09:00:12.124Z,2.20
2023-05-19T09:02:50.388Z,2.30
2023-05-19T09:05:26.397Z,3.30
2023-05-19T09:07:52.971Z,2.43
2023-05-19T09:10:19.555Z,2.30
2023-05-19T09:12:47.769Z,2.33
2023-05-19T09:15:17.456Z,2.23
2023-05-19T09:17:45.189Z,2.00
2023-05-19T09:20:11.830Z,2.10
2023-05-19T09:22:47.359Z,2.13
2023-05-19T09:25:23.822Z,2.13
2023-05-19T09:27:50.753Z,2.10
2023-05-19T09:30:17.719Z,2.00
2023-05-19T09:32:44.781Z,2.20
2023-05-19T09:35:12.454Z,2.40
2023-05-19T09:37:39.946Z,2.43
2023-05-19T09:40:07.721Z,1.90
2023-05-19T09:42:37.189Z,8.17
2023-05-19T09:45:03.966Z,1.87
2023-05-19T09:47:40.350Z,2.17
2023-05-19T09:50:08.880Z,2.17
2023-05-19T09:52:36.226Z,2.10
2023-05-19T09:55:04.965Z,2.20
2023-05-19T09:57:38.370Z,2.00
2023-05-19T10:00:14.374Z,1.97
2023-05-19T10:02:43.739Z,2.10
2023-05-19T10:05:20.730Z,2.50
2023-05-19T10:07:50.097Z,1.90
2023-05-19T10:10:17.292Z,2.40
2023-05-19T10:12:44.034Z,2.27
2023-05-19T10:15:11.638Z,1.87
2023-05-19T10:17:39.570Z,2.10
2023-05-19T10:20:14.087Z,2.13
2023-05-19T10:22:41.785Z,2.60
2023-05-19T10:25:08.989Z,2.13
2023-05-19T10:27:37.899Z,1.77
2023-05-19T10:30:12.101Z,2.23
2023-05-19T10:32:41.367Z,2.10
2023-05-19T10:35:28.220Z,2.30
2023-05-19T10:38:02.607Z,1.90
2023-05-19T10:40:29.357Z,2.03
2023-05-19T10:43:00.884Z,2.00
2023-05-19T10:45:29.086Z,2.20
2023-05-19T10:47:56.234Z,2.13
2023-05-19T10:50:23.180Z,2.00
2023-05-19T10:52:55.710Z,1.97
2023-05-19T10:55:41.074Z,1.80
2023-05-19T10:58:07.808Z,1.93
2023-05-19T11:00:34.557Z,2.00
2023-05-19T11:03:17.869Z,2.10
2023-05-19T11:05:46.447Z,1.90
2023-05-19T11:08:13.570Z,1.87
2023-05-19T11:10:44.843Z,2.10
2023-05-19T11:13:19.009Z,1.90
2023-05-19T11:15:46.799Z,1.90
2023-05-19T11:18:16.065Z,1.70
2023-05-19T11:20:42.824Z,1.67
2023-05-19T11:23:11.182Z,1.77
2023-05-19T11:25:44.661Z,1.80
2023-05-19T11:28:14.805Z,2.03
2023-05-19T11:30:42.808Z,1.87
2023-05-19T11:33:09.947Z,2.07
2023-05-19T11:35:37.438Z,2.10
2023-05-19T11:38:05.450Z,2.00
2023-05-19T11:40:33.071Z,2.00
2023-05-19T11:43:01.822Z,1.90
2023-05-19T11:45:29.380Z,1.77
2023-05-19T11:48:02.410Z,1.83
2023-05-19T11:50:31.290Z,1.80
2023-05-19T11:52:59.835Z,2.03
2023-05-19T11:55:26.667Z,2.27
2023-05-19T12:00:30.280Z,2.13
2023-05-19T12:02:57.734Z,2.10
2023-05-19T12:05:25.122Z,2.33
2023-05-19T12:07:52.547Z,1.87
2023-05-19T12:10:23.450Z,1.80
2023-05-19T12:12:53.940Z,2.20
2023-05-19T12:15:23.825Z,2.10
2023-05-19T12:18:00.767Z,2.00
2023-05-19T12:20:28.053Z,1.87
2023-05-19T12:22:58.081Z,2.17
2023-05-19T12:25:25.025Z,2.10
2023-05-19T12:27:56.901Z,2.20
2023-05-19T12:30:26.333Z,2.00
2023-05-19T12:32:54.085Z,1.90
2023-05-19T12:35:23.314Z,1.80
2023-05-19T12:37:50.716Z,2.13
2023-05-19T12:40:17.481Z,1.90
2023-05-19T12:42:48.714Z,2.50
2023-05-19T12:45:15.401Z,2.10
2023-05-19T12:47:42.071Z,2.10
2023-05-19T12:50:10.005Z,1.80
2023-05-19T12:52:44.053Z,1.87
2023-05-19T12:55:14.167Z,2.00
2023-05-19T12:57:42.182Z,1.77
2023-05-19T13:00:14.050Z,2.20
2023-05-19T13:02:56.086Z,2.10
2023-05-19T13:05:23.103Z,1.93
2023-05-19T13:07:59.618Z,2.23
2023-05-19T13:10:29.579Z,2.13
2023-05-19T13:12:56.818Z,2.00
2023-05-19T13:15:26.652Z,2.47
2023-05-19T13:17:53.917Z,2.40
2023-05-19T13:20:21.588Z,2.43
2023-05-19T13:22:48.492Z,2.30
2023-05-19T13:25:15.166Z,2.30
2023-05-19T13:27:42.107Z,2.13
2023-05-19T13:30:08.963Z,2.60
2023-05-19T13:32:35.922Z,3.03
2023-05-19T13:35:02.839Z,9.00
2023-05-19T13:37:29.669Z,13.47
2023-05-19T13:39:58.572Z,6.40
2023-05-19T13:42:25.206Z,2.80
2023-05-19T13:44:55.361Z,2.27
2023-05-19T13:47:25.242Z,2.33
2023-05-19T13:49:52.062Z,2.53
2023-05-19T13:52:19.724Z,2.53
2023-05-19T13:54:46.764Z,2.80
2023-05-19T13:57:13.370Z,2.20
2023-05-19T13:59:49.310Z,2.47
2023-05-19T14:02:26.775Z,2.40
2023-05-19T14:04:53.608Z,2.20
2023-05-19T14:07:20.205Z,2.13
2023-05-19T14:09:46.878Z,2.50
2023-05-19T14:12:13.909Z,2.23
2023-05-19T14:14:40.559Z,2.47
2023-05-19T14:17:07.160Z,2.40
2023-05-19T14:19:33.809Z,2.60
2023-05-19T14:22:00.440Z,2.40
2023-05-19T14:24:27.080Z,2.83
2023-05-19T14:26:53.943Z,2.30
2023-05-19T14:29:20.657Z,2.40
2023-05-19T14:31:47.420Z,2.40
2023-05-19T14:34:17.840Z,2.40
2023-05-19T14:36:44.694Z,2.60
2023-05-19T14:39:12.013Z,2.27
2023-05-19T14:41:38.659Z,2.40
2023-05-19T14:44:05.776Z,2.40
2023-05-19T14:46:32.401Z,2.50
2023-05-19T14:48:59.079Z,2.60
2023-05-19T14:51:25.743Z,2.80
2023-05-19T14:53:52.391Z,2.30
2023-05-19T14:56:18.994Z,2.87
2023-05-19T14:58:45.617Z,2.60
2023-05-19T15:01:12.321Z,2.47
2023-05-19T15:03:38.984Z,2.40
2023-05-19T15:06:08.678Z,2.30
2023-05-19T15:08:37.681Z,2.27
2023-05-19T15:11:04.458Z,2.23
2023-05-19T15:13:31.084Z,2.47
2023-05-19T15:16:12.470Z,2.40
2023-05-19T15:18:42.682Z,2.20
2023-05-19T15:21:09.324Z,2.07
2023-05-19T15:23:36.207Z,2.20
2023-05-19T15:26:02.915Z,2.20
2023-05-19T15:28:29.558Z,2.10
2023-05-19T15:30:56.557Z,2.83
2023-05-19T15:33:23.178Z,2.70
2023-05-19T15:35:51.756Z,3.50
2023-05-19T15:38:19.060Z,3.63
2023-05-19T15:40:46.028Z,3.80
2023-05-19T15:43:12.880Z,3.30
2023-05-19T15:45:39.491Z,3.00
2023-05-19T15:48:06.433Z,2.50
2023-05-19T15:50:33.178Z,2.00
2023-05-19T15:52:59.938Z,2.20
2023-05-19T15:55:26.505Z,2.97
2023-05-19T15:57:53.077Z,2.50
2023-05-19T16:00:20.539Z,2.57
2023-05-19T16:02:47.321Z,2.40
2023-05-19T16:05:14.292Z,2.20
2023-05-19T16:07:42.214Z,4.20
2023-05-19T16:10:09.297Z,3.87
2023-05-19T16:12:36.723Z,3.17
2023-05-19T16:15:03.614Z,2.97
2023-05-19T16:17:30.398Z,3.00
2023-05-19T16:19:57.097Z,2.83
2023-05-19T16:22:24.898Z,2.80
2023-05-19T16:24:52.761Z,3.00
2023-05-19T16:27:19.426Z,2.63
2023-05-19T16:29:46.075Z,3.13
2023-05-19T16:32:12.925Z,2.90
2023-05-19T16:34:39.942Z,3.37
2023-05-19T16:37:06.600Z,4.37
2023-05-19T16:39:36.017Z,4.70
2023-05-19T16:42:03.143Z,3.17
2023-05-19T16:44:29.785Z,3.27
2023-05-19T16:46:56.381Z,3.57
2023-05-19T16:49:22.944Z,3.20
2023-05-19T16:51:49.794Z,3.43
2023-05-19T16:54:16.468Z,4.90
2023-05-19T16:56:43.089Z,3.80
2023-05-19T16:59:09.795Z,3.10
2023-05-19T17:01:36.479Z,3.83
2023-05-19T17:04:03.093Z,3.03
2023-05-19T17:06:29.642Z,3.17
2023-05-19T17:08:56.252Z,3.53
2023-05-19T17:11:22.903Z,3.47
2023-05-19T17:13:49.579Z,3.50
2023-05-19T17:16:16.334Z,3.40
2023-05-19T17:18:43.902Z,3.37
2023-05-19T17:21:10.751Z,3.50
2023-05-19T17:23:38.267Z,3.50
2023-05-19T17:26:05.029Z,3.53
2023-05-19T17:28:31.776Z,3.63
2023-05-19T17:30:58.497Z,3.53
2023-05-19T17:33:25.193Z,3.00
2023-05-19T17:35:51.808Z,3.57
2023-05-19T17:38:18.421Z,3.40
2023-05-19T17:40:45.039Z,3.47
2023-05-19T17:43:11.608Z,3.57
2023-05-19T17:45:38.191Z,3.60
2023-05-19T17:48:05.226Z,3.60
2023-05-19T17:50:32.171Z,3.10
2023-05-19T17:52:59.065Z,3.50
2023-05-19T17:55:29.979Z,3.97
2023-05-19T17:57:57.066Z,3.87
2023-05-19T18:00:25.215Z,3.70
2023-05-19T18:02:52.252Z,5.20
2023-05-19T18:05:19.282Z,6.70
2023-05-19T18:07:46.183Z,7.07
2023-05-19T18:10:14.861Z,5.80
2023-05-19T18:12:41.487Z,3.73
2023-05-19T18:15:08.300Z,4.67
2023-05-19T18:17:34.898Z,7.13
2023-05-19T18:20:01.577Z,7.47
2023-05-19T18:22:28.131Z,8.13
2023-05-19T18:24:54.739Z,6.77
2023-05-19T18:27:21.299Z,5.50
2023-05-19T18:29:47.895Z,6.67
2023-05-19T18:32:16.874Z,4.70
2023-05-19T18:34:43.597Z,3.63
2023-05-19T18:37:10.166Z,3.50
2023-05-19T18:39:37.012Z,3.57
2023-05-19T18:42:03.676Z,3.60
2023-05-19T18:44:30.298Z,5.17
2023-05-19T18:46:56.849Z,4.87
2023-05-19T18:49:25.030Z,3.63
2023-05-19T18:51:51.900Z,3.37
2023-05-19T18:54:19.507Z,4.60
2023-05-19T18:56:46.147Z,5.47
2023-05-19T18:59:12.833Z,4.87
2023-05-19T19:01:39.614Z,3.53
2023-05-19T19:04:06.387Z,3.60
2023-05-19T19:06:33.003Z,3.33
2023-05-19T19:08:59.592Z,3.70
2023-05-19T19:11:26.454Z,5.60
2023-05-19T19:13:55.501Z,6.00
2023-05-19T19:16:22.405Z,5.60
2023-05-19T19:18:49.251Z,5.70
2023-05-19T19:21:15.906Z,4.30
2023-05-19T19:23:42.795Z,5.90
2023-05-19T19:26:09.653Z,5.47
2023-05-19T19:28:36.579Z,4.20
2023-05-19T19:31:03.261Z,4.90
2023-05-19T19:33:29.843Z,6.53
2023-05-19T19:35:56.560Z,11.50
2023-05-19T19:38:23.179Z,38.60
2023-05-19T19:40:52.639Z,29.77
2023-05-19T19:43:19.255Z,23.83
2023-05-19T19:45:45.860Z,14.87
2023-05-19T19:48:12.550Z,10.00
2023-05-19T19:50:39.192Z,16.10
2023-05-19T19:53:05.806Z,13.17
2023-05-19T19:55:32.524Z,10.43
2023-05-19T19:57:59.115Z,8.07
2023-05-19T20:00:25.960Z,11.17
2023-05-19T20:03:04.497Z,8.30
2023-05-19T20:05:32.227Z,10.10
2023-05-19T20:07:58.917Z,11.53
2023-05-19T20:10:25.511Z,11.10
2023-05-19T20:12:52.305Z,18.30
2023-05-19T20:15:18.969Z,15.33
2023-05-19T20:17:45.901Z,16.13
2023-05-19T20:20:12.806Z,13.60
2023-05-19T20:22:39.414Z,8.43
2023-05-19T20:25:06.634Z,16.40
2023-05-19T20:27:33.229Z,15.03
2023-05-19T20:29:59.869Z,15.23
2023-05-19T20:32:26.577Z,20.27
2023-05-19T20:34:53.144Z,26.93
2023-05-19T20:37:21.011Z,31.17
2023-05-19T20:39:47.667Z,15.57
2023-05-19T20:42:14.346Z,19.43
2023-05-19T20:44:41.567Z,12.67
2023-05-19T20:47:08.553Z,10.17
2023-05-19T20:49:35.179Z,8.17
2023-05-19T20:52:01.911Z,15.00
2023-05-19T20:54:28.549Z,12.13
2023-05-19T20:56:55.161Z,13.80
2023-05-19T20:59:21.990Z,11.43
2023-05-19T21:01:48.713Z,8.13
2023-05-19T21:04:15.431Z,15.40
2023-05-19T21:06:42.034Z,15.73
2023-05-19T21:09:08.843Z,16.30
2023-05-19T21:11:35.893Z,20.90
2023-05-19T21:14:04.278Z,19.53
2023-05-19T21:16:31.464Z,13.67
2023-05-19T21:18:58.260Z,14.97
2023-05-19T21:21:25.036Z,17.70
2023-05-19T21:23:51.840Z,21.83
2023-05-19T21:26:18.414Z,16.93
2023-05-19T21:28:45.019Z,15.50
2023-05-19T21:31:11.696Z,36.43
2023-05-19T21:33:38.366Z,31.67
2023-05-19T21:36:05.086Z,18.70
2023-05-19T21:38:31.679Z,20.57
2023-05-19T21:40:58.263Z,22.90
2023-05-19T21:43:24.909Z,18.03
2023-05-19T21:45:51.560Z,12.33
2023-05-19T21:48:18.306Z,12.87
2023-05-19T21:50:44.913Z,10.47
2023-05-19T21:53:11.529Z,11.50
2023-05-19T21:55:39.235Z,15.30
2023-05-19T21:58:05.876Z,15.23
2023-05-19T22:00:32.597Z,14.53
2023-05-19T22:02:59.343Z,13.93
2023-05-19T22:05:26.024Z,13.43
2023-05-19T22:07:52.621Z,14.53
2023-05-19T22:10:19.273Z,18.30
2023-05-19T22:12:45.858Z,14.53
2023-05-19T22:15:13.491Z,13.20
2023-05-19T22:17:40.271Z,19.47
2023-05-19T22:20:07.049Z,25.40
2023-05-19T22:22:33.793Z,11.20
2023-05-19T22:25:00.417Z,7.40
2023-05-19T22:27:27.105Z,8.40
2023-05-19T22:29:53.676Z,7.70
2023-05-19T22:32:20.263Z,7.47
2023-05-19T22:34:47.008Z,11.50
2023-05-19T22:37:13.687Z,9.93
2023-05-19T22:39:40.245Z,10.33
2023-05-19T22:42:06.890Z,10.70
2023-05-19T22:44:33.465Z,11.90
2023-05-19T22:47:00.072Z,10.10
2023-05-19T22:49:27.483Z,9.50
2023-05-19T22:51:54.100Z,10.07
2023-05-19T22:54:20.706Z,8.83
2023-05-19T22:56:48.831Z,9.30
2023-05-19T22:59:18.039Z,10.53
2023-05-19T23:01:46.792Z,9.10
2023-05-19T23:04:14.025Z,8.50
2023-05-19T23:06:40.794Z,9.17
2023-05-19T23:09:07.729Z,9.73
2023-05-19T23:11:35.886Z,11.20
2023-05-19T23:14:02.574Z,10.40
2023-05-19T23:16:29.646Z,9.43
2023-05-19T23:18:56.382Z,9.03
2023-05-19T23:21:23.114Z,8.70
2023-05-19T23:23:49.910Z,9.37
2023-05-19T23:26:16.546Z,8.73
2023-05-19T23:28:43.695Z,8.30
2023-05-19T23:31:10.465Z,7.93
2023-05-19T23:33:37.088Z,8.13
2023-05-19T23:36:07.746Z,9.07
2023-05-19T23:38:34.775Z,7.97
2023-05-19T23:41:01.423Z,8.00
2023-05-19T23:43:28.034Z,8.37
2023-05-19T23:45:54.866Z,7.60
2023-05-19T23:48:21.661Z,8.03
2023-05-19T23:50:48.218Z,8.10
2023-05-19T23:53:14.880Z,9.77
2023-05-19T23:55:41.455Z,9.50
2023-05-19T23:58:08.118Z,8.27
